sensor_id;sensor_type;location;lat;lon;timestamp;P1;durP1;ratioP1;P2;durP2;ratioP2
62006;SDS011;47963;53.008;6.754;2022-07-29T00:00:40;5.88;;;1.80;;
62006;SDS011;47963;53.008;6.754;2022-07-29T00:03:09;6.20;;;1.98;;
62006;SDS011;47963;53.008;6.754;2022-07-29T00:05:38;5.85;;;1.90;;
62006;SDS011;47963;53.008;6.754;2022-07-29T00:08:04;5.65;;;2.05;;
62006;SDS011;47963;53.008;6.754;2022-07-29T00:10:30;6.30;;;2.00;;
62006;SDS011;47963;53.008;6.754;2022-07-29T00:12:56;5.13;;;1.73;;
62006;SDS011;47963;53.008;6.754;2022-07-29T00:15:22;4.95;;;1.77;;
62006;SDS011;47963;53.008;6.754;2022-07-29T00:17:48;7.60;;;2.30;;
62006;SDS011;47963;53.008;6.754;2022-07-29T00:20:13;7.75;;;2.40;;
62006;SDS011;47963;53.008;6.754;2022-07-29T00:22:39;5.65;;;2.00;;
62006;SDS011;47963;53.008;6.754;2022-07-29T00:25:05;6.53;;;2.05;;
62006;SDS011;47963;53.008;6.754;2022-07-29T00:27:33;5.95;;;2.08;;
62006;SDS011;47963;53.008;6.754;2022-07-29T00:29:59;4.57;;;1.80;;
62006;SDS011;47963;53.008;6.754;2022-07-29T00:32:25;5.50;;;2.15;;
62006;SDS011;47963;53.008;6.754;2022-07-29T00:34:50;6.05;;;1.92;;
62006;SDS011;47963;53.008;6.754;2022-07-29T00:37:34;6.43;;;2.28;;
62006;SDS011;47963;53.008;6.754;2022-07-29T00:40:00;5.85;;;2.47;;
62006;SDS011;47963;53.008;6.754;2022-07-29T00:42:26;5.50;;;2.00;;
62006;SDS011;47963;53.008;6.754;2022-07-29T00:44:52;6.95;;;2.30;;
62006;SDS011;47963;53.008;6.754;2022-07-29T00:47:18;5.70;;;2.00;;
62006;SDS011;47963;53.008;6.754;2022-07-29T00:49:43;6.82;;;2.17;;
62006;SDS011;47963;53.008;6.754;2022-07-29T00:52:09;5.57;;;2.20;;
62006;SDS011;47963;53.008;6.754;2022-07-29T00:54:39;6.18;;;2.13;;
62006;SDS011;47963;53.008;6.754;2022-07-29T00:57:08;6.28;;;2.25;;
62006;SDS011;47963;53.008;6.754;2022-07-29T00:59:34;4.97;;;2.00;;
62006;SDS011;47963;53.008;6.754;2022-07-29T01:01:59;7.25;;;2.60;;
62006;SDS011;47963;53.008;6.754;2022-07-29T01:04:25;7.43;;;2.30;;
62006;SDS011;47963;53.008;6.754;2022-07-29T01:06:52;7.07;;;2.40;;
62006;SDS011;47963;53.008;6.754;2022-07-29T01:09:19;7.50;;;2.50;;
62006;SDS011;47963;53.008;6.754;2022-07-29T01:11:45;7.75;;;2.42;;
62006;SDS011;47963;53.008;6.754;2022-07-29T01:14:12;6.82;;;2.17;;
62006;SDS011;47963;53.008;6.754;2022-07-29T01:16:46;6.55;;;2.28;;
62006;SDS011;47963;53.008;6.754;2022-07-29T01:22:35;6.53;;;1.90;;
62006;SDS011;47963;53.008;6.754;2022-07-29T01:28:08;7.60;;;2.30;;
62006;SDS011;47963;53.008;6.754;2022-07-29T01:30:56;5.43;;;1.90;;
62006;SDS011;47963;53.008;6.754;2022-07-29T01:33:22;6.40;;;2.20;;
62006;SDS011;47963;53.008;6.754;2022-07-29T01:36:19;6.70;;;2.17;;
62006;SDS011;47963;53.008;6.754;2022-07-29T01:41:38;6.82;;;2.20;;
62006;SDS011;47963;53.008;6.754;2022-07-29T01:44:11;7.13;;;2.20;;
62006;SDS011;47963;53.008;6.754;2022-07-29T01:46:43;5.68;;;2.00;;
62006;SDS011;47963;53.008;6.754;2022-07-29T01:49:18;5.43;;;1.95;;
62006;SDS011;47963;53.008;6.754;2022-07-29T01:51:53;5.32;;;1.92;;
62006;SDS011;47963;53.008;6.754;2022-07-29T01:54:30;7.55;;;2.10;;
62006;SDS011;47963;53.008;6.754;2022-07-29T01:57:00;6.78;;;2.05;;
62006;SDS011;47963;53.008;6.754;2022-07-29T01:59:28;6.63;;;1.80;;
62006;SDS011;47963;53.008;6.754;2022-07-29T02:01:56;6.20;;;1.80;;
62006;SDS011;47963;53.008;6.754;2022-07-29T02:04:23;7.28;;;2.28;;
62006;SDS011;47963;53.008;6.754;2022-07-29T02:06:51;6.18;;;2.00;;
62006;SDS011;47963;53.008;6.754;2022-07-29T02:09:19;7.25;;;2.00;;
62006;SDS011;47963;53.008;6.754;2022-07-29T02:11:51;5.47;;;2.35;;
62006;SDS011;47963;53.008;6.754;2022-07-29T02:14:20;5.95;;;1.85;;
62006;SDS011;47963;53.008;6.754;2022-07-29T02:16:48;5.63;;;1.90;;
62006;SDS011;47963;53.008;6.754;2022-07-29T02:19:18;7.45;;;2.10;;
62006;SDS011;47963;53.008;6.754;2022-07-29T02:21:46;6.90;;;2.35;;
62006;SDS011;47963;53.008;6.754;2022-07-29T02:24:12;5.65;;;1.90;;
62006;SDS011;47963;53.008;6.754;2022-07-29T02:26:41;6.85;;;2.20;;
62006;SDS011;47963;53.008;6.754;2022-07-29T02:29:09;6.13;;;2.33;;
62006;SDS011;47963;53.008;6.754;2022-07-29T02:31:36;6.32;;;2.10;;
62006;SDS011;47963;53.008;6.754;2022-07-29T02:34:05;6.43;;;1.98;;
62006;SDS011;47963;53.008;6.754;2022-07-29T02:36:33;6.28;;;2.10;;
62006;SDS011;47963;53.008;6.754;2022-07-29T02:39:00;8.75;;;2.10;;
62006;SDS011;47963;53.008;6.754;2022-07-29T02:41:35;6.07;;;1.98;;
62006;SDS011;47963;53.008;6.754;2022-07-29T02:44:11;6.07;;;2.00;;
62006;SDS011;47963;53.008;6.754;2022-07-29T02:46:41;7.88;;;2.10;;
62006;SDS011;47963;53.008;6.754;2022-07-29T02:51:51;6.73;;;2.23;;
62006;SDS011;47963;53.008;6.754;2022-07-29T02:56:59;6.72;;;2.00;;
62006;SDS011;47963;53.008;6.754;2022-07-29T02:59:29;6.35;;;2.05;;
62006;SDS011;47963;53.008;6.754;2022-07-29T03:01:59;6.75;;;2.00;;
62006;SDS011;47963;53.008;6.754;2022-07-29T03:04:25;7.18;;;1.80;;
62006;SDS011;47963;53.008;6.754;2022-07-29T03:06:53;6.53;;;1.98;;
62006;SDS011;47963;53.008;6.754;2022-07-29T03:09:20;6.05;;;1.90;;
62006;SDS011;47963;53.008;6.754;2022-07-29T03:11:48;6.25;;;2.10;;
62006;SDS011;47963;53.008;6.754;2022-07-29T03:14:13;5.10;;;2.20;;
62006;SDS011;47963;53.008;6.754;2022-07-29T03:16:40;9.77;;;2.38;;
62006;SDS011;47963;53.008;6.754;2022-07-29T03:19:07;6.80;;;2.00;;
62006;SDS011;47963;53.008;6.754;2022-07-29T03:21:33;6.18;;;2.00;;
62006;SDS011;47963;53.008;6.754;2022-07-29T03:23:59;7.15;;;2.20;;
62006;SDS011;47963;53.008;6.754;2022-07-29T03:26:24;7.82;;;2.20;;
62006;SDS011;47963;53.008;6.754;2022-07-29T03:28:50;5.95;;;2.20;;
62006;SDS011;47963;53.008;6.754;2022-07-29T03:31:16;6.05;;;2.10;;
62006;SDS011;47963;53.008;6.754;2022-07-29T03:33:41;5.65;;;2.10;;
62006;SDS011;47963;53.008;6.754;2022-07-29T03:36:07;7.35;;;2.10;;
62006;SDS011;47963;53.008;6.754;2022-07-29T03:38:34;7.85;;;2.22;;
62006;SDS011;47963;53.008;6.754;2022-07-29T03:41:04;7.35;;;2.05;;
62006;SDS011;47963;53.008;6.754;2022-07-29T03:43:34;5.90;;;2.35;;
62006;SDS011;47963;53.008;6.754;2022-07-29T03:46:03;7.53;;;2.30;;
62006;SDS011;47963;53.008;6.754;2022-07-29T03:48:32;8.77;;;2.28;;
62006;SDS011;47963;53.008;6.754;2022-07-29T03:51:01;7.78;;;2.67;;
62006;SDS011;47963;53.008;6.754;2022-07-29T03:53:28;6.38;;;2.33;;
62006;SDS011;47963;53.008;6.754;2022-07-29T03:55:55;5.82;;;2.03;;
62006;SDS011;47963;53.008;6.754;2022-07-29T03:58:24;9.80;;;2.40;;
62006;SDS011;47963;53.008;6.754;2022-07-29T04:00:52;6.47;;;2.80;;
62006;SDS011;47963;53.008;6.754;2022-07-29T04:03:20;7.65;;;2.33;;
62006;SDS011;47963;53.008;6.754;2022-07-29T04:05:57;6.25;;;2.20;;
62006;SDS011;47963;53.008;6.754;2022-07-29T04:08:23;7.90;;;2.50;;
62006;SDS011;47963;53.008;6.754;2022-07-29T04:10:49;6.32;;;2.30;;
62006;SDS011;47963;53.008;6.754;2022-07-29T04:13:16;6.82;;;2.28;;
62006;SDS011;47963;53.008;6.754;2022-07-29T04:15:43;10.10;;;2.47;;
62006;SDS011;47963;53.008;6.754;2022-07-29T04:18:09;7.07;;;2.33;;
62006;SDS011;47963;53.008;6.754;2022-07-29T04:20:34;4.60;;;2.17;;
62006;SDS011;47963;53.008;6.754;2022-07-29T04:23:00;6.85;;;2.40;;
62006;SDS011;47963;53.008;6.754;2022-07-29T04:25:26;7.20;;;2.38;;
62006;SDS011;47963;53.008;6.754;2022-07-29T04:27:51;7.18;;;2.40;;
62006;SDS011;47963;53.008;6.754;2022-07-29T04:30:26;6.60;;;2.38;;
62006;SDS011;47963;53.008;6.754;2022-07-29T04:32:53;7.53;;;2.55;;
62006;SDS011;47963;53.008;6.754;2022-07-29T04:35:19;6.15;;;2.47;;
62006;SDS011;47963;53.008;6.754;2022-07-29T04:37:45;6.85;;;2.17;;
62006;SDS011;47963;53.008;6.754;2022-07-29T04:40:11;7.07;;;2.65;;
62006;SDS011;47963;53.008;6.754;2022-07-29T04:42:37;8.23;;;2.50;;
62006;SDS011;47963;53.008;6.754;2022-07-29T04:45:03;6.45;;;2.70;;
62006;SDS011;47963;53.008;6.754;2022-07-29T04:47:29;7.40;;;2.70;;
62006;SDS011;47963;53.008;6.754;2022-07-29T04:49:55;8.80;;;2.60;;
62006;SDS011;47963;53.008;6.754;2022-07-29T04:52:21;8.68;;;2.90;;
62006;SDS011;47963;53.008;6.754;2022-07-29T04:54:47;7.07;;;2.63;;
62006;SDS011;47963;53.008;6.754;2022-07-29T04:57:13;7.50;;;2.30;;
62006;SDS011;47963;53.008;6.754;2022-07-29T04:59:39;8.63;;;2.85;;
62006;SDS011;47963;53.008;6.754;2022-07-29T05:02:04;8.10;;;2.50;;
62006;SDS011;47963;53.008;6.754;2022-07-29T05:04:30;7.60;;;2.60;;
62006;SDS011;47963;53.008;6.754;2022-07-29T05:06:56;7.47;;;2.58;;
62006;SDS011;47963;53.008;6.754;2022-07-29T05:09:22;7.20;;;2.72;;
62006;SDS011;47963;53.008;6.754;2022-07-29T05:11:47;6.75;;;2.75;;
62006;SDS011;47963;53.008;6.754;2022-07-29T05:14:13;20.33;;;4.13;;
62006;SDS011;47963;53.008;6.754;2022-07-29T05:16:39;8.30;;;2.75;;
62006;SDS011;47963;53.008;6.754;2022-07-29T05:19:05;7.45;;;2.42;;
62006;SDS011;47963;53.008;6.754;2022-07-29T05:21:31;7.93;;;2.80;;
62006;SDS011;47963;53.008;6.754;2022-07-29T05:23:57;8.70;;;2.92;;
62006;SDS011;47963;53.008;6.754;2022-07-29T05:26:23;8.07;;;2.80;;
62006;SDS011;47963;53.008;6.754;2022-07-29T05:28:48;9.32;;;2.67;;
62006;SDS011;47963;53.008;6.754;2022-07-29T05:31:15;7.90;;;2.83;;
62006;SDS011;47963;53.008;6.754;2022-07-29T05:33:41;10.05;;;2.95;;
62006;SDS011;47963;53.008;6.754;2022-07-29T05:36:07;10.38;;;3.28;;
62006;SDS011;47963;53.008;6.754;2022-07-29T05:38:33;8.05;;;2.90;;
62006;SDS011;47963;53.008;6.754;2022-07-29T05:41:00;8.02;;;2.80;;
62006;SDS011;47963;53.008;6.754;2022-07-29T05:43:26;7.20;;;2.42;;
62006;SDS011;47963;53.008;6.754;2022-07-29T05:45:52;9.98;;;2.95;;
62006;SDS011;47963;53.008;6.754;2022-07-29T05:48:18;7.88;;;2.90;;
62006;SDS011;47963;53.008;6.754;2022-07-29T05:50:44;7.20;;;2.80;;
62006;SDS011;47963;53.008;6.754;2022-07-29T05:53:09;6.55;;;2.63;;
62006;SDS011;47963;53.008;6.754;2022-07-29T05:55:35;8.48;;;3.08;;
62006;SDS011;47963;53.008;6.754;2022-07-29T05:58:01;7.53;;;2.75;;
62006;SDS011;47963;53.008;6.754;2022-07-29T06:00:26;11.13;;;3.25;;
62006;SDS011;47963;53.008;6.754;2022-07-29T06:02:52;6.38;;;2.70;;
62006;SDS011;47963;53.008;6.754;2022-07-29T06:05:18;8.13;;;2.85;;
62006;SDS011;47963;53.008;6.754;2022-07-29T06:07:43;7.78;;;2.83;;
62006;SDS011;47963;53.008;6.754;2022-07-29T06:10:09;7.57;;;3.00;;
62006;SDS011;47963;53.008;6.754;2022-07-29T06:12:35;9.75;;;3.17;;
62006;SDS011;47963;53.008;6.754;2022-07-29T06:15:01;8.45;;;2.58;;
62006;SDS011;47963;53.008;6.754;2022-07-29T06:17:27;8.45;;;2.92;;
62006;SDS011;47963;53.008;6.754;2022-07-29T06:19:52;9.15;;;2.67;;
62006;SDS011;47963;53.008;6.754;2022-07-29T06:22:18;12.45;;;3.28;;
62006;SDS011;47963;53.008;6.754;2022-07-29T06:24:44;7.97;;;3.40;;
62006;SDS011;47963;53.008;6.754;2022-07-29T06:27:10;9.90;;;3.20;;
62006;SDS011;47963;53.008;6.754;2022-07-29T06:29:36;8.60;;;3.03;;
62006;SDS011;47963;53.008;6.754;2022-07-29T06:32:02;9.70;;;3.00;;
62006;SDS011;47963;53.008;6.754;2022-07-29T06:34:28;9.98;;;3.40;;
62006;SDS011;47963;53.008;6.754;2022-07-29T06:36:54;7.90;;;3.17;;
62006;SDS011;47963;53.008;6.754;2022-07-29T06:39:20;9.43;;;3.30;;
62006;SDS011;47963;53.008;6.754;2022-07-29T06:41:49;9.27;;;3.08;;
62006;SDS011;47963;53.008;6.754;2022-07-29T06:44:15;7.93;;;3.35;;
62006;SDS011;47963;53.008;6.754;2022-07-29T06:46:42;8.10;;;3.05;;
62006;SDS011;47963;53.008;6.754;2022-07-29T06:49:08;9.60;;;3.10;;
62006;SDS011;47963;53.008;6.754;2022-07-29T06:51:34;8.93;;;3.15;;
62006;SDS011;47963;53.008;6.754;2022-07-29T06:54:00;8.77;;;3.40;;
62006;SDS011;47963;53.008;6.754;2022-07-29T06:56:26;8.52;;;3.42;;
62006;SDS011;47963;53.008;6.754;2022-07-29T06:58:52;12.18;;;3.15;;
62006;SDS011;47963;53.008;6.754;2022-07-29T07:01:18;11.00;;;3.50;;
62006;SDS011;47963;53.008;6.754;2022-07-29T07:03:44;7.28;;;3.20;;
62006;SDS011;47963;53.008;6.754;2022-07-29T07:06:10;9.88;;;3.35;;
62006;SDS011;47963;53.008;6.754;2022-07-29T07:08:36;7.78;;;2.92;;
62006;SDS011;47963;53.008;6.754;2022-07-29T07:11:01;6.72;;;2.90;;
62006;SDS011;47963;53.008;6.754;2022-07-29T07:13:27;10.00;;;3.17;;
62006;SDS011;47963;53.008;6.754;2022-07-29T07:15:56;7.95;;;3.00;;
62006;SDS011;47963;53.008;6.754;2022-07-29T07:18:21;8.77;;;3.38;;
62006;SDS011;47963;53.008;6.754;2022-07-29T07:20:47;9.65;;;2.97;;
62006;SDS011;47963;53.008;6.754;2022-07-29T07:23:13;9.25;;;3.30;;
62006;SDS011;47963;53.008;6.754;2022-07-29T07:25:39;8.10;;;3.08;;
62006;SDS011;47963;53.008;6.754;2022-07-29T07:28:04;11.57;;;3.35;;
62006;SDS011;47963;53.008;6.754;2022-07-29T07:30:30;7.97;;;3.08;;
62006;SDS011;47963;53.008;6.754;2022-07-29T07:32:56;11.02;;;3.28;;
62006;SDS011;47963;53.008;6.754;2022-07-29T07:35:21;8.02;;;3.00;;
62006;SDS011;47963;53.008;6.754;2022-07-29T07:37:47;8.88;;;3.08;;
62006;SDS011;47963;53.008;6.754;2022-07-29T07:40:13;10.02;;;3.40;;
62006;SDS011;47963;53.008;6.754;2022-07-29T07:42:39;10.60;;;3.60;;
62006;SDS011;47963;53.008;6.754;2022-07-29T07:45:06;8.35;;;3.33;;
62006;SDS011;47963;53.008;6.754;2022-07-29T07:47:34;11.45;;;3.53;;
62006;SDS011;47963;53.008;6.754;2022-07-29T07:50:06;10.40;;;3.20;;
62006;SDS011;47963;53.008;6.754;2022-07-29T07:52:35;7.40;;;3.03;;
62006;SDS011;47963;53.008;6.754;2022-07-29T07:55:14;7.80;;;3.05;;
62006;SDS011;47963;53.008;6.754;2022-07-29T07:57:40;9.60;;;3.22;;
62006;SDS011;47963;53.008;6.754;2022-07-29T08:00:06;9.15;;;3.28;;
62006;SDS011;47963;53.008;6.754;2022-07-29T08:02:32;11.68;;;3.60;;
62006;SDS011;47963;53.008;6.754;2022-07-29T08:04:58;10.25;;;3.40;;
62006;SDS011;47963;53.008;6.754;2022-07-29T08:07:24;10.48;;;3.63;;
62006;SDS011;47963;53.008;6.754;2022-07-29T08:09:50;12.48;;;3.55;;
62006;SDS011;47963;53.008;6.754;2022-07-29T08:12:16;8.65;;;3.65;;
62006;SDS011;47963;53.008;6.754;2022-07-29T08:14:41;7.90;;;3.30;;
62006;SDS011;47963;53.008;6.754;2022-07-29T08:17:07;9.32;;;3.70;;
62006;SDS011;47963;53.008;6.754;2022-07-29T08:19:33;8.20;;;3.55;;
62006;SDS011;47963;53.008;6.754;2022-07-29T08:21:58;11.10;;;3.80;;
62006;SDS011;47963;53.008;6.754;2022-07-29T08:24:24;7.47;;;3.05;;
62006;SDS011;47963;53.008;6.754;2022-07-29T08:27:08;9.00;;;3.67;;
62006;SDS011;47963;53.008;6.754;2022-07-29T08:29:38;11.25;;;4.00;;
62006;SDS011;47963;53.008;6.754;2022-07-29T08:32:04;9.00;;;3.08;;
62006;SDS011;47963;53.008;6.754;2022-07-29T08:34:30;9.20;;;3.50;;
62006;SDS011;47963;53.008;6.754;2022-07-29T08:36:57;10.30;;;3.60;;
62006;SDS011;47963;53.008;6.754;2022-07-29T08:39:23;10.73;;;3.58;;
62006;SDS011;47963;53.008;6.754;2022-07-29T08:41:50;8.73;;;3.40;;
62006;SDS011;47963;53.008;6.754;2022-07-29T08:44:16;12.63;;;3.85;;
62006;SDS011;47963;53.008;6.754;2022-07-29T08:46:47;10.30;;;4.10;;
62006;SDS011;47963;53.008;6.754;2022-07-29T08:49:14;8.52;;;3.90;;
62006;SDS011;47963;53.008;6.754;2022-07-29T08:51:40;8.23;;;3.65;;
62006;SDS011;47963;53.008;6.754;2022-07-29T08:54:08;11.98;;;4.30;;
62006;SDS011;47963;53.008;6.754;2022-07-29T08:56:34;9.27;;;3.70;;
62006;SDS011;47963;53.008;6.754;2022-07-29T08:59:02;12.65;;;3.78;;
62006;SDS011;47963;53.008;6.754;2022-07-29T09:01:33;11.02;;;3.80;;
62006;SDS011;47963;53.008;6.754;2022-07-29T09:04:01;9.43;;;3.88;;
62006;SDS011;47963;53.008;6.754;2022-07-29T09:06:29;9.73;;;3.85;;
62006;SDS011;47963;53.008;6.754;2022-07-29T09:08:58;12.63;;;4.10;;
62006;SDS011;47963;53.008;6.754;2022-07-29T09:11:25;11.85;;;3.53;;
62006;SDS011;47963;53.008;6.754;2022-07-29T09:13:51;10.13;;;4.10;;
62006;SDS011;47963;53.008;6.754;2022-07-29T09:16:16;9.75;;;3.95;;
62006;SDS011;47963;53.008;6.754;2022-07-29T09:18:44;12.18;;;3.70;;
62006;SDS011;47963;53.008;6.754;2022-07-29T09:21:12;9.73;;;3.80;;
62006;SDS011;47963;53.008;6.754;2022-07-29T09:26:39;9.30;;;3.72;;
62006;SDS011;47963;53.008;6.754;2022-07-29T09:29:10;9.77;;;3.53;;
62006;SDS011;47963;53.008;6.754;2022-07-29T09:31:37;10.23;;;4.10;;
62006;SDS011;47963;53.008;6.754;2022-07-29T09:34:04;11.13;;;4.40;;
62006;SDS011;47963;53.008;6.754;2022-07-29T09:36:31;9.60;;;3.72;;
62006;SDS011;47963;53.008;6.754;2022-07-29T09:39:10;8.43;;;3.65;;
62006;SDS011;47963;53.008;6.754;2022-07-29T09:41:45;10.55;;;4.03;;
62006;SDS011;47963;53.008;6.754;2022-07-29T09:44:17;9.33;;;4.03;;
62006;SDS011;47963;53.008;6.754;2022-07-29T09:46:59;15.30;;;4.15;;
62006;SDS011;47963;53.008;6.754;2022-07-29T09:49:33;9.55;;;3.90;;
62006;SDS011;47963;53.008;6.754;2022-07-29T09:52:14;10.15;;;4.03;;
62006;SDS011;47963;53.008;6.754;2022-07-29T09:54:40;12.45;;;4.30;;
62006;SDS011;47963;53.008;6.754;2022-07-29T09:57:06;10.30;;;4.15;;
62006;SDS011;47963;53.008;6.754;2022-07-29T09:59:37;9.73;;;4.30;;
62006;SDS011;47963;53.008;6.754;2022-07-29T10:02:12;8.25;;;3.70;;
62006;SDS011;47963;53.008;6.754;2022-07-29T10:04:39;10.13;;;3.85;;
62006;SDS011;47963;53.008;6.754;2022-07-29T10:07:06;9.63;;;4.57;;
62006;SDS011;47963;53.008;6.754;2022-07-29T10:09:32;10.68;;;4.15;;
62006;SDS011;47963;53.008;6.754;2022-07-29T10:12:08;9.88;;;4.13;;
62006;SDS011;47963;53.008;6.754;2022-07-29T10:14:38;9.13;;;4.20;;
62006;SDS011;47963;53.008;6.754;2022-07-29T10:17:05;8.90;;;3.80;;
62006;SDS011;47963;53.008;6.754;2022-07-29T10:19:33;9.75;;;4.20;;
62006;SDS011;47963;53.008;6.754;2022-07-29T10:22:00;9.55;;;4.10;;
62006;SDS011;47963;53.008;6.754;2022-07-29T10:24:27;11.10;;;4.20;;
62006;SDS011;47963;53.008;6.754;2022-07-29T10:26:58;11.80;;;4.57;;
62006;SDS011;47963;53.008;6.754;2022-07-29T10:31:56;10.13;;;4.18;;
62006;SDS011;47963;53.008;6.754;2022-07-29T10:35:14;11.27;;;4.47;;
62006;SDS011;47963;53.008;6.754;2022-07-29T10:43:40;10.13;;;4.25;;
62006;SDS011;47963;53.008;6.754;2022-07-29T10:46:08;9.27;;;4.35;;
62006;SDS011;47963;53.008;6.754;2022-07-29T10:49:03;12.13;;;4.78;;
62006;SDS011;47963;53.008;6.754;2022-07-29T10:54:36;11.00;;;4.47;;
62006;SDS011;47963;53.008;6.754;2022-07-29T10:59:46;9.25;;;4.47;;
62006;SDS011;47963;53.008;6.754;2022-07-29T11:05:03;10.35;;;4.50;;
62006;SDS011;47963;53.008;6.754;2022-07-29T11:07:37;8.88;;;4.15;;
62006;SDS011;47963;53.008;6.754;2022-07-29T11:15:04;9.85;;;4.35;;
62006;SDS011;47963;53.008;6.754;2022-07-29T11:20:32;12.35;;;5.07;;
62006;SDS011;47963;53.008;6.754;2022-07-29T11:22:58;14.50;;;4.88;;
62006;SDS011;47963;53.008;6.754;2022-07-29T11:25:24;11.05;;;4.85;;
62006;SDS011;47963;53.008;6.754;2022-07-29T11:27:51;11.63;;;5.30;;
62006;SDS011;47963;53.008;6.754;2022-07-29T11:30:19;9.63;;;5.03;;
62006;SDS011;47963;53.008;6.754;2022-07-29T11:32:45;10.27;;;4.90;;
62006;SDS011;47963;53.008;6.754;2022-07-29T11:37:40;10.63;;;4.35;;
62006;SDS011;47963;53.008;6.754;2022-07-29T11:45:07;11.43;;;5.13;;
62006;SDS011;47963;53.008;6.754;2022-07-29T11:47:40;11.43;;;4.80;;
62006;SDS011;47963;53.008;6.754;2022-07-29T11:50:13;11.93;;;5.15;;
62006;SDS011;47963;53.008;6.754;2022-07-29T11:52:45;10.80;;;4.45;;
62006;SDS011;47963;53.008;6.754;2022-07-29T11:55:13;11.02;;;4.07;;
62006;SDS011;47963;53.008;6.754;2022-07-29T11:57:49;10.00;;;4.32;;
62006;SDS011;47963;53.008;6.754;2022-07-29T12:03:08;11.48;;;4.40;;
62006;SDS011;47963;53.008;6.754;2022-07-29T12:05:37;9.07;;;4.10;;
62006;SDS011;47963;53.008;6.754;2022-07-29T12:08:06;9.85;;;4.22;;
62006;SDS011;47963;53.008;6.754;2022-07-29T12:10:33;12.38;;;5.00;;
62006;SDS011;47963;53.008;6.754;2022-07-29T12:13:00;10.30;;;4.70;;
62006;SDS011;47963;53.008;6.754;2022-07-29T12:15:25;10.52;;;4.28;;
62006;SDS011;47963;53.008;6.754;2022-07-29T12:17:51;11.38;;;4.85;;
62006;SDS011;47963;53.008;6.754;2022-07-29T12:20:24;9.65;;;4.43;;
62006;SDS011;47963;53.008;6.754;2022-07-29T12:22:51;11.63;;;4.57;;
62006;SDS011;47963;53.008;6.754;2022-07-29T12:25:18;10.27;;;5.00;;
62006;SDS011;47963;53.008;6.754;2022-07-29T12:27:45;12.05;;;5.00;;
62006;SDS011;47963;53.008;6.754;2022-07-29T12:30:15;13.07;;;4.88;;
62006;SDS011;47963;53.008;6.754;2022-07-29T12:32:42;11.52;;;4.55;;
62006;SDS011;47963;53.008;6.754;2022-07-29T12:35:13;10.55;;;4.53;;
62006;SDS011;47963;53.008;6.754;2022-07-29T12:37:40;20.40;;;5.07;;
62006;SDS011;47963;53.008;6.754;2022-07-29T12:40:09;10.73;;;4.72;;
62006;SDS011;47963;53.008;6.754;2022-07-29T12:42:36;10.82;;;4.38;;
62006;SDS011;47963;53.008;6.754;2022-07-29T12:45:02;9.65;;;4.50;;
62006;SDS011;47963;53.008;6.754;2022-07-29T12:47:29;10.02;;;4.25;;
62006;SDS011;47963;53.008;6.754;2022-07-29T12:50:11;10.20;;;4.50;;
62006;SDS011;47963;53.008;6.754;2022-07-29T12:52:42;9.45;;;4.93;;
62006;SDS011;47963;53.008;6.754;2022-07-29T12:55:09;12.80;;;4.55;;
62006;SDS011;47963;53.008;6.754;2022-07-29T12:57:47;9.25;;;4.53;;
62006;SDS011;47963;53.008;6.754;2022-07-29T13:00:21;14.02;;;5.10;;
62006;SDS011;47963;53.008;6.754;2022-07-29T13:02:54;12.20;;;5.40;;
62006;SDS011;47963;53.008;6.754;2022-07-29T13:05:21;11.13;;;5.13;;
62006;SDS011;47963;53.008;6.754;2022-07-29T13:07:47;12.65;;;4.90;;
62006;SDS011;47963;53.008;6.754;2022-07-29T13:10:17;11.73;;;4.93;;
62006;SDS011;47963;53.008;6.754;2022-07-29T13:15:42;12.57;;;4.72;;
62006;SDS011;47963;53.008;6.754;2022-07-29T13:20:58;13.18;;;4.70;;
62006;SDS011;47963;53.008;6.754;2022-07-29T13:23:40;11.88;;;5.13;;
62006;SDS011;47963;53.008;6.754;2022-07-29T13:26:09;9.77;;;4.22;;
62006;SDS011;47963;53.008;6.754;2022-07-29T13:28:41;10.65;;;4.45;;
62006;SDS011;47963;53.008;6.754;2022-07-29T13:31:07;11.88;;;4.20;;
62006;SDS011;47963;53.008;6.754;2022-07-29T13:33:34;11.00;;;3.80;;
62006;SDS011;47963;53.008;6.754;2022-07-29T13:35:59;11.70;;;4.32;;
62006;SDS011;47963;53.008;6.754;2022-07-29T13:38:25;11.60;;;4.07;;
62006;SDS011;47963;53.008;6.754;2022-07-29T13:40:52;10.13;;;3.97;;
62006;SDS011;47963;53.008;6.754;2022-07-29T13:43:17;8.35;;;3.72;;
62006;SDS011;47963;53.008;6.754;2022-07-29T13:45:43;11.25;;;4.18;;
62006;SDS011;47963;53.008;6.754;2022-07-29T13:48:08;11.07;;;4.20;;
62006;SDS011;47963;53.008;6.754;2022-07-29T13:50:34;14.07;;;4.07;;
62006;SDS011;47963;53.008;6.754;2022-07-29T13:53:00;12.30;;;3.95;;
62006;SDS011;47963;53.008;6.754;2022-07-29T13:55:25;9.15;;;3.70;;
62006;SDS011;47963;53.008;6.754;2022-07-29T13:57:51;9.77;;;3.45;;
62006;SDS011;47963;53.008;6.754;2022-07-29T14:00:17;9.00;;;3.55;;
62006;SDS011;47963;53.008;6.754;2022-07-29T14:02:43;10.20;;;3.30;;
62006;SDS011;47963;53.008;6.754;2022-07-29T14:05:09;10.55;;;3.40;;
62006;SDS011;47963;53.008;6.754;2022-07-29T14:07:35;9.85;;;3.33;;
62006;SDS011;47963;53.008;6.754;2022-07-29T14:10:03;8.57;;;2.97;;
62006;SDS011;47963;53.008;6.754;2022-07-29T14:12:29;11.15;;;3.70;;
62006;SDS011;47963;53.008;6.754;2022-07-29T14:14:55;8.38;;;3.10;;
62006;SDS011;47963;53.008;6.754;2022-07-29T14:17:21;11.80;;;3.75;;
62006;SDS011;47963;53.008;6.754;2022-07-29T14:19:47;9.98;;;3.63;;
62006;SDS011;47963;53.008;6.754;2022-07-29T14:22:13;10.43;;;3.40;;
62006;SDS011;47963;53.008;6.754;2022-07-29T14:24:39;9.05;;;3.05;;
62006;SDS011;47963;53.008;6.754;2022-07-29T14:27:06;12.90;;;3.50;;
62006;SDS011;47963;53.008;6.754;2022-07-29T14:29:35;9.50;;;3.30;;
62006;SDS011;47963;53.008;6.754;2022-07-29T14:32:02;9.30;;;3.70;;
62006;SDS011;47963;53.008;6.754;2022-07-29T14:34:28;10.32;;;3.53;;
62006;SDS011;47963;53.008;6.754;2022-07-29T14:36:54;7.68;;;3.15;;
62006;SDS011;47963;53.008;6.754;2022-07-29T14:39:21;8.93;;;3.35;;
62006;SDS011;47963;53.008;6.754;2022-07-29T14:41:48;10.02;;;3.20;;
62006;SDS011;47963;53.008;6.754;2022-07-29T14:44:14;10.52;;;3.60;;
62006;SDS011;47963;53.008;6.754;2022-07-29T14:46:40;12.15;;;3.40;;
62006;SDS011;47963;53.008;6.754;2022-07-29T14:49:06;10.25;;;3.28;;
62006;SDS011;47963;53.008;6.754;2022-07-29T14:51:31;9.90;;;3.53;;
62006;SDS011;47963;53.008;6.754;2022-07-29T14:53:57;8.05;;;3.33;;
62006;SDS011;47963;53.008;6.754;2022-07-29T14:56:23;9.73;;;3.38;;
62006;SDS011;47963;53.008;6.754;2022-07-29T14:58:48;7.82;;;3.05;;
62006;SDS011;47963;53.008;6.754;2022-07-29T15:01:14;9.80;;;3.53;;
62006;SDS011;47963;53.008;6.754;2022-07-29T15:03:40;10.05;;;3.05;;
62006;SDS011;47963;53.008;6.754;2022-07-29T15:06:05;9.32;;;3.25;;
62006;SDS011;47963;53.008;6.754;2022-07-29T15:08:31;8.13;;;3.22;;
62006;SDS011;47963;53.008;6.754;2022-07-29T15:10:57;12.10;;;3.50;;
62006;SDS011;47963;53.008;6.754;2022-07-29T15:13:24;8.63;;;3.53;;
62006;SDS011;47963;53.008;6.754;2022-07-29T15:15:50;11.38;;;3.10;;
62006;SDS011;47963;53.008;6.754;2022-07-29T15:18:16;9.25;;;3.30;;
62006;SDS011;47963;53.008;6.754;2022-07-29T15:20:42;9.50;;;3.10;;
62006;SDS011;47963;53.008;6.754;2022-07-29T15:23:09;11.35;;;3.42;;
62006;SDS011;47963;53.008;6.754;2022-07-29T15:25:37;6.78;;;3.03;;
62006;SDS011;47963;53.008;6.754;2022-07-29T15:28:03;7.10;;;3.17;;
62006;SDS011;47963;53.008;6.754;2022-07-29T15:30:34;8.93;;;3.30;;
62006;SDS011;47963;53.008;6.754;2022-07-29T15:33:05;9.48;;;3.28;;
62006;SDS011;47963;53.008;6.754;2022-07-29T15:35:33;7.93;;;3.10;;
62006;SDS011;47963;53.008;6.754;2022-07-29T15:37:58;9.68;;;3.05;;
62006;SDS011;47963;53.008;6.754;2022-07-29T15:40:24;10.30;;;3.25;;
62006;SDS011;47963;53.008;6.754;2022-07-29T15:42:50;10.48;;;3.28;;
62006;SDS011;47963;53.008;6.754;2022-07-29T15:45:15;10.48;;;3.05;;